Time,TemperatureF,DewpointF,PressureIn,WindDirection,WindDirectionDegrees,WindSpeedMPH,WindSpeedGustMPH,Humidity,HourlyPrecipIn,Conditions,Clouds,dailyrainin,SoftwareType,DateUTC
2013-10-09 00:14:00,51.0,44.0,30.21,ESE,110,0.0,-999.0,76,-99.99,,,-99.99,,2013-10-09 04:14:00,
2013-10-09 00:24:00,52.0,44.0,30.21,ESE,110,1.0,-999.0,74,-99.99,,,-99.99,,2013-10-09 04:24:00,
2013-10-09 00:44:00,52.0,44.0,30.22,ESE,110,0.0,-999.0,74,-99.99,,,-99.99,,2013-10-09 04:44:00,
2013-10-09 00:54:00,51.0,43.0,30.21,ESE,110,1.0,-999.0,75,-99.99,,,-99.99,,2013-10-09 04:54:00,
2013-10-09 01:22:00,49.0,43.0,30.21,ESE,110,1.0,-999.0,79,-99.99,,,-99.99,,2013-10-09 05:22:00,
2013-10-09 01:42:00,49.0,43.0,30.22,ESE,110,0.0,-999.0,80,-99.99,,,-99.99,,2013-10-09 05:42:00,
2013-10-09 01:52:00,49.0,43.0,30.21,ESE,110,0.0,-999.0,79,-99.99,,,-99.99,,2013-10-09 05:52:00,
2013-10-09 02:12:00,48.0,42.0,30.21,ESE,110,0.0,-999.0,81,-99.99,,,-99.99,,2013-10-09 06:12:00,
2013-10-09 02:22:00,47.0,42.0,30.22,ESE,110,0.0,-999.0,82,-99.99,,,-99.99,,2013-10-09 06:22:00,
2013-10-09 02:42:00,47.0,42.0,30.22,ESE,110,0.0,-999.0,82,-99.99,,,-99.99,,2013-10-09 06:42:00,
2013-10-09 02:52:00,46.0,41.0,30.22,ESE,110,0.0,-999.0,81,-99.99,,,-99.99,,2013-10-09 06:52:00,
2013-10-09 03:12:00,45.0,40.0,30.22,ESE,110,0.0,-999.0,82,-99.99,,,-99.99,,2013-10-09 07:12:00,
2013-10-09 03:22:00,44.0,39.0,30.22,ESE,110,0.0,-999.0,84,-99.99,,,-99.99,,2013-10-09 07:22:00,
2013-10-09 03:42:00,44.0,40.0,30.22,ESE,110,0.0,-999.0,85,-99.99,,,-99.99,,2013-10-09 07:42:00,
2013-10-09 03:52:00,43.0,39.0,30.21,ESE,110,0.0,-999.0,86,-99.99,,,-99.99,,2013-10-09 07:52:00,
2013-10-09 04:12:00,43.0,39.0,30.21,ESE,110,0.0,-999.0,87,-99.99,,,-99.99,,2013-10-09 08:12:00,
2013-10-09 04:23:00,42.0,39.0,30.21,ESE,110,0.0,-999.0,88,-99.99,,,-99.99,,2013-10-09 08:23:00,
2013-10-09 04:42:00,42.0,39.0,30.22,ESE,110,0.0,-999.0,89,-99.99,,,-99.99,,2013-10-09 08:42:00,
2013-10-09 04:53:00,42.0,39.0,30.22,ESE,110,0.0,-999.0,90,-99.99,,,-99.99,,2013-10-09 08:53:00,
2013-10-09 05:11:00,42.0,40.0,30.21,ESE,110,0.0,-999.0,91,-99.99,,,-99.99,,2013-10-09 09:11:00,
2013-10-09 05:22:00,42.0,40.0,30.22,ESE,110,0.0,-999.0,91,-99.99,,,-99.99,,2013-10-09 09:22:00,
2013-10-09 05:43:00,42.0,40.0,30.22,ESE,110,0.0,-999.0,92,-99.99,,,-99.99,,2013-10-09 09:43:00,
2013-10-09 05:53:00,42.0,40.0,30.22,ESE,110,0.0,-999.0,93,-99.99,,,-99.99,,2013-10-09 09:53:00,
2013-10-09 06:13:00,42.0,40.0,30.22,ESE,110,0.0,-999.0,93,-99.99,,,-99.99,,2013-10-09 10:13:00,
2013-10-09 06:23:00,42.0,40.0,30.22,ESE,110,0.0,-999.0,93,-99.99,,,-99.99,,2013-10-09 10:23:00,
2013-10-09 06:43:00,43.0,41.0,30.23,ESE,110,0.0,-999.0,93,-99.99,,,-99.99,,2013-10-09 10:43:00,
2013-10-09 06:53:00,42.0,40.0,30.23,ESE,110,0.0,-999.0,93,-99.99,,,-99.99,,2013-10-09 10:53:00,
2013-10-09 07:22:00,42.0,40.0,30.24,ESE,110,0.0,-999.0,93,-99.99,,,-99.99,,2013-10-09 11:22:00,
2013-10-09 07:42:00,42.0,40.0,30.24,ESE,110,0.0,-999.0,93,-99.99,,,-99.99,,2013-10-09 11:42:00,
2013-10-09 07:52:00,41.0,39.0,30.24,ESE,110,0.0,-999.0,93,-99.99,,,-99.99,,2013-10-09 11:52:00,
2013-10-09 08:12:00,41.0,39.0,30.24,ESE,111,0.0,-999.0,93,-99.99,,,-99.99,,2013-10-09 12:12:00,
2013-10-09 08:22:00,42.0,41.0,30.24,ESE,106,0.0,-999.0,95,-99.99,,,-99.99,,2013-10-09 12:22:00,
2013-10-09 08:42:00,43.0,42.0,30.24,NE,55,0.0,-999.0,95,-99.99,,,-99.99,,2013-10-09 12:42:00,
2013-10-09 08:52:00,43.0,42.0,30.25,East,93,0.0,-999.0,95,-99.99,,,-99.99,,2013-10-09 12:52:00,
2013-10-09 09:11:00,45.0,44.0,30.25,SE,130,0.0,-999.0,95,-99.99,,,-99.99,,2013-10-09 13:11:00,
2013-10-09 09:22:00,46.0,44.0,30.25,ESE,123,0.0,-999.0,94,-99.99,,,-99.99,,2013-10-09 13:22:00,
2013-10-09 09:42:00,48.0,46.0,30.26,ESE,121,0.0,-999.0,92,-99.99,,,-99.99,,2013-10-09 13:42:00,
2013-10-09 09:52:00,49.0,46.0,30.26,ESE,121,0.0,-999.0,91,-99.99,,,-99.99,,2013-10-09 13:52:00,
2013-10-09 10:11:00,51.0,48.0,30.26,South,188,0.0,-999.0,88,-99.99,,,-99.99,,2013-10-09 14:11:00,
2013-10-09 10:22:00,53.0,49.0,30.26,South,186,0.0,-999.0,85,-99.99,,,-99.99,,2013-10-09 14:22:00,
2013-10-09 10:42:00,55.0,50.0,30.26,SE,124,1.0,-999.0,82,-99.99,,,-99.99,,2013-10-09 14:42:00,
2013-10-09 10:52:00,56.0,49.0,30.26,East,98,4.0,-999.0,78,-99.99,,,-99.99,,2013-10-09 14:52:00,
2013-10-09 11:11:00,58.0,50.0,30.26,East,98,4.0,-999.0,76,-99.99,,,-99.99,,2013-10-09 15:11:00,
2013-10-09 11:22:00,59.0,51.0,30.26,ESE,108,3.0,-999.0,75,-99.99,,,-99.99,,2013-10-09 15:22:00,
2013-10-09 11:53:00,61.0,51.0,30.26,ESE,120,5.0,-999.0,70,-99.99,,,-99.99,,2013-10-09 15:53:00,
2013-10-09 12:13:00,62.0,51.0,30.25,East,99,4.0,-999.0,68,-99.99,,,-99.99,,2013-10-09 16:13:00,
2013-10-09 12:24:00,64.0,51.0,30.25,East,80,6.0,-999.0,63,-99.99,,,-99.99,,2013-10-09 16:24:00,
2013-10-09 12:42:00,64.0,48.0,30.24,East,98,3.0,-999.0,57,-99.99,,,-99.99,,2013-10-09 16:42:00,
2013-10-09 12:53:00,65.0,48.0,30.25,East,94,3.0,-999.0,55,-99.99,,,-99.99,,2013-10-09 16:53:00,
2013-10-09 13:12:00,66.0,49.0,30.24,East,81,2.0,-999.0,55,-99.99,,,-99.99,,2013-10-09 17:12:00,
2013-10-09 13:22:00,66.0,51.0,30.23,ENE,65,4.0,-999.0,58,-99.99,,,-99.99,,2013-10-09 17:22:00,
2013-10-09 13:42:00,67.0,49.0,30.23,ENE,60,2.0,-999.0,53,-99.99,,,-99.99,,2013-10-09 17:42:00,
2013-10-09 13:52:00,68.0,51.0,30.22,ESE,105,2.0,-999.0,54,-99.99,,,-99.99,,2013-10-09 17:52:00,
2013-10-09 14:12:00,68.0,49.0,30.22,East,86,3.0,-999.0,51,-99.99,,,-99.99,,2013-10-09 18:12:00,
2013-10-09 14:22:00,69.0,50.0,30.20,East,79,2.0,-999.0,50,-99.99,,,-99.99,,2013-10-09 18:22:00,
2013-10-09 14:42:00,69.0,48.0,30.20,East,94,5.0,-999.0,48,-99.99,,,-99.99,,2013-10-09 18:42:00,
2013-10-09 14:52:00,69.0,47.0,30.20,ESE,111,7.0,-999.0,46,-99.99,,,-99.99,,2013-10-09 18:52:00,
2013-10-09 15:11:00,69.0,47.0,30.19,East,85,7.0,-999.0,46,-99.99,,,-99.99,,2013-10-09 19:11:00,
2013-10-09 15:22:00,70.0,49.0,30.19,ESE,113,6.0,-999.0,48,-99.99,,,-99.99,,2013-10-09 19:22:00,
2013-10-09 15:42:00,70.0,50.0,30.18,ESE,105,4.0,-999.0,49,-99.99,,,-99.99,,2013-10-09 19:42:00,
2013-10-09 15:53:00,71.0,49.0,30.18,East,94,3.0,-999.0,45,-99.99,,,-99.99,,2013-10-09 19:53:00,
2013-10-09 16:11:00,71.0,49.0,30.17,SSE,150,5.0,-999.0,46,-99.99,,,-99.99,,2013-10-09 20:11:00,
2013-10-09 16:22:00,71.0,50.0,30.17,East,99,4.0,-999.0,47,-99.99,,,-99.99,,2013-10-09 20:22:00,
2013-10-09 16:43:00,71.0,47.0,30.16,East,91,6.0,-999.0,43,-99.99,,,-99.99,,2013-10-09 20:43:00,
2013-10-09 16:52:00,71.0,50.0,30.16,ENE,76,4.0,-999.0,47,-99.99,,,-99.99,,2013-10-09 20:52:00,
2013-10-09 17:12:00,72.0,49.0,30.16,East,91,2.0,-999.0,45,-99.99,,,-99.99,,2013-10-09 21:12:00,
2013-10-09 17:22:00,72.0,49.0,30.16,East,88,3.0,-999.0,45,-99.99,,,-99.99,,2013-10-09 21:22:00,
2013-10-09 17:44:00,72.0,49.0,30.16,East,96,3.0,-999.0,45,-99.99,,,-99.99,,2013-10-09 21:44:00,
2013-10-09 17:54:00,72.0,49.0,30.16,East,92,5.0,-999.0,44,-99.99,,,-99.99,,2013-10-09 21:54:00,
2013-10-09 18:24:00,71.0,49.0,30.16,ESE,109,3.0,-999.0,45,-99.99,,,-99.99,,2013-10-09 22:24:00,
2013-10-09 18:43:00,71.0,49.0,30.16,ESE,114,2.0,-999.0,46,-99.99,,,-99.99,,2013-10-09 22:43:00,
2013-10-09 18:53:00,71.0,50.0,30.16,ESE,113,3.0,-999.0,47,-99.99,,,-99.99,,2013-10-09 22:53:00,
2013-10-09 19:12:00,70.0,51.0,30.16,ESE,113,0.0,-999.0,51,-99.99,,,-99.99,,2013-10-09 23:12:00,
2013-10-09 19:22:00,68.0,51.0,30.15,ESE,113,0.0,-999.0,54,-99.99,,,-99.99,,2013-10-09 23:22:00,
2013-10-09 19:53:00,64.0,49.0,30.15,ESE,113,0.0,-999.0,59,-99.99,,,-99.99,,2013-10-09 23:53:00,
2013-10-09 20:12:00,62.0,50.0,30.15,ESE,113,0.0,-999.0,64,-99.99,,,-99.99,,2013-10-10 00:12:00,
2013-10-09 20:22:00,60.0,47.0,30.16,East,83,0.0,-999.0,63,-99.99,,,-99.99,,2013-10-10 00:22:00,
2013-10-09 20:42:00,60.0,47.0,30.16,East,80,0.0,-999.0,63,-99.99,,,-99.99,,2013-10-10 00:42:00,
2013-10-09 20:52:00,59.0,47.0,30.16,East,79,0.0,-999.0,65,-99.99,,,-99.99,,2013-10-10 00:52:00,
2013-10-09 21:11:00,60.0,48.0,30.16,ENE,76,0.0,-999.0,65,-99.99,,,-99.99,,2013-10-10 01:11:00,
2013-10-09 21:22:00,59.0,47.0,30.16,East,81,0.0,-999.0,65,-99.99,,,-99.99,,2013-10-10 01:22:00,
2013-10-09 21:42:00,59.0,46.0,30.16,East,82,1.0,-999.0,63,-99.99,,,-99.99,,2013-10-10 01:42:00,
2013-10-09 21:52:00,60.0,47.0,30.16,East,83,0.0,-999.0,62,-99.99,,,-99.99,,2013-10-10 01:52:00,
2013-10-09 22:12:00,59.0,46.0,30.16,East,82,0.0,-999.0,63,-99.99,,,-99.99,,2013-10-10 02:12:00,
2013-10-09 22:22:00,59.0,48.0,30.16,East,82,0.0,-999.0,66,-99.99,,,-99.99,,2013-10-10 02:22:00,
2013-10-09 23:12:00,55.0,47.0,30.16,East,85,0.0,-999.0,73,-99.99,,,-99.99,,2013-10-10 03:12:00,
2013-10-09 23:22:00,55.0,48.0,30.16,East,86,0.0,-999.0,76,-99.99,,,-99.99,,2013-10-10 03:22:00,
2013-10-09 23:44:00,55.0,47.0,30.16,ENE,70,1.0,-999.0,74,-99.99,,,-99.99,,2013-10-10 03:44:00,
2013-10-09 23:55:00,55.0,47.0,30.16,ENE,66,0.0,-999.0,73,-99.99,,,-99.99,,2013-10-10 03:55:00,